createdAt,value
2019-06-07T01:51:32.142Z,10.10
2019-06-07T01:54:49.203Z,10.10
2019-06-07T01:56:53.132Z,10.10
2019-06-07T01:59:49.007Z,10.10
2019-06-07T03:32:11.182Z,9.30
2019-06-07T03:34:43.536Z,9.40
2019-06-07T03:37:10.508Z,9.50
2019-06-07T03:39:41.110Z,9.50
2019-06-07T03:42:12.798Z,9.70
2019-06-07T03:44:41.819Z,9.80
2019-06-07T03:47:10.722Z,9.80
2019-06-07T03:49:42.608Z,9.70
2019-06-07T03:52:10.098Z,9.60
2019-06-07T03:54:39.905Z,9.70
2019-06-07T03:57:08.844Z,9.70
2019-06-07T03:59:39.569Z,9.80
2019-06-07T04:02:08.026Z,9.90
2019-06-07T04:04:38.490Z,9.90
2019-06-07T04:07:07.085Z,10.00
2019-06-07T04:09:41.896Z,10.10
2019-06-07T04:12:06.257Z,10.20
2019-06-07T04:14:38.507Z,10.20
2019-06-07T04:17:11.617Z,10.20
2019-06-07T04:19:43.929Z,10.40
2019-06-07T04:22:19.606Z,10.40
2019-06-07T04:24:48.554Z,10.40
2019-06-07T04:27:17.449Z,10.40
2019-06-07T04:30:05.824Z,10.50
2019-06-07T04:32:17.373Z,10.60
2019-06-07T04:34:46.095Z,10.70
2019-06-07T04:37:14.588Z,10.90
2019-06-07T04:39:45.359Z,11.10
2019-06-07T04:42:16.341Z,11.30
2019-06-07T04:44:48.734Z,11.60
2019-06-07T04:47:19.436Z,11.90
2019-06-07T04:49:51.827Z,12.10
2019-06-07T04:52:20.679Z,12.30
2019-06-07T04:54:49.430Z,12.60
2019-06-07T04:57:18.175Z,12.70
2019-06-07T05:00:11.901Z,12.90
2019-06-07T05:02:17.641Z,13.00
2019-06-07T05:04:46.460Z,13.00
2019-06-07T05:07:15.015Z,13.20
2019-06-07T05:09:43.755Z,14.00
2019-06-07T05:12:12.175Z,14.80
2019-06-07T05:14:44.003Z,14.80
2019-06-07T05:17:11.330Z,14.60
2019-06-07T05:19:43.729Z,14.40
2019-06-07T05:22:09.940Z,14.60
2019-06-07T05:24:41.562Z,14.50
2019-06-07T05:27:09.133Z,14.60
2019-06-07T05:29:39.188Z,14.60
2019-06-07T05:32:08.975Z,14.20
2019-06-07T05:34:42.435Z,13.80
2019-06-07T05:37:11.958Z,13.60
2019-06-07T05:39:42.489Z,13.50
2019-06-07T05:42:09.930Z,13.40
2019-06-07T05:44:39.948Z,14.40
2019-06-07T05:47:09.056Z,15.60
2019-06-07T05:49:39.567Z,15.10
2019-06-07T05:52:08.008Z,14.70
2019-06-07T05:54:38.238Z,14.40
2019-06-07T05:57:08.684Z,14.10
2019-06-07T05:59:40.020Z,13.70
2019-06-07T06:02:21.752Z,13.50
2019-06-07T06:04:47.726Z,13.50
2019-06-07T06:07:12.011Z,14.30
2019-06-07T06:09:40.724Z,15.30
2019-06-07T06:12:31.869Z,15.60
2019-06-07T06:14:44.075Z,16.60
2019-06-07T06:17:14.924Z,19.00
2019-06-07T06:19:47.398Z,19.60
2019-06-07T06:22:14.283Z,19.70
2019-06-07T06:25:17.081Z,20.00
2019-06-07T06:27:41.821Z,19.90
2019-06-07T06:29:46.348Z,18.70
2019-06-07T06:32:41.331Z,18.00
2019-06-07T06:34:49.360Z,17.80
2019-06-07T06:37:15.366Z,17.30
2019-06-07T06:39:46.607Z,16.90
2019-06-07T06:42:14.579Z,16.90
2019-06-07T06:44:44.483Z,18.40
2019-06-07T06:47:13.701Z,19.30
2019-06-07T06:49:44.225Z,19.60
2019-06-07T06:52:12.577Z,19.50
2019-06-07T06:54:46.570Z,19.30
2019-06-07T06:57:19.527Z,18.70
2019-06-07T06:59:43.689Z,19.10
2019-06-07T07:02:12.629Z,19.60
2019-06-07T07:04:42.309Z,20.50
2019-06-07T07:07:11.964Z,21.30
2019-06-07T07:09:43.781Z,21.60
2019-06-07T07:12:13.020Z,22.10
2019-06-07T07:14:42.998Z,21.40
2019-06-07T07:17:11.473Z,22.00
2019-06-07T07:19:42.356Z,23.00
2019-06-07T07:22:10.644Z,23.00
2019-06-07T07:24:39.080Z,23.20
2019-06-07T07:27:07.815Z,23.70
2019-06-07T07:29:36.513Z,24.30
2019-06-07T07:32:05.087Z,24.70
2019-06-07T07:34:36.865Z,25.90
2019-06-07T07:37:04.621Z,27.60
2019-06-07T07:39:33.121Z,29.00
2019-06-07T07:42:20.040Z,30.00
2019-06-07T07:44:32.278Z,28.30
2019-06-07T07:47:00.972Z,26.40
2019-06-07T07:49:29.429Z,24.90
2019-06-07T07:51:59.067Z,24.00
2019-06-07T07:54:28.005Z,23.20
2019-06-07T07:56:57.360Z,22.40
2019-06-07T07:59:41.278Z,21.70
2019-06-07T08:01:56.591Z,21.20
2019-06-07T08:05:11.991Z,21.30
2019-06-07T08:06:56.134Z,21.40
2019-06-07T08:09:25.031Z,21.50
2019-06-07T08:11:59.998Z,21.10
2019-06-07T08:14:24.725Z,20.80
2019-06-07T08:16:54.483Z,20.70
2019-06-07T08:19:23.621Z,20.70
2019-06-07T08:21:53.072Z,21.40
2019-06-07T08:24:21.778Z,21.40
2019-06-07T08:27:12.510Z,21.40
2019-06-07T08:29:20.782Z,21.30
2019-06-07T08:31:52.886Z,21.40
2019-06-07T08:34:19.370Z,21.80
2019-06-07T08:36:49.462Z,21.80
2019-06-07T08:39:19.699Z,21.80
2019-06-07T08:42:00.431Z,21.80
2019-06-07T08:44:23.781Z,21.50
2019-06-07T08:46:56.640Z,21.50
2019-06-07T08:49:19.718Z,22.10
2019-06-07T08:51:48.418Z,22.10
2019-06-07T08:54:22.873Z,21.80
2019-06-07T08:56:47.287Z,21.60
2019-06-07T08:59:17.392Z,21.60
2019-06-07T09:01:45.856Z,22.00
2019-06-07T09:04:14.567Z,22.10
2019-06-07T09:09:13.671Z,22.40
2019-06-07T09:11:42.388Z,22.70
2019-06-07T09:14:11.172Z,22.70
2019-06-07T09:16:39.896Z,22.70
2019-06-07T09:19:10.910Z,22.90
2019-06-07T09:21:38.811Z,23.20
2019-06-07T09:24:11.339Z,23.30
2019-06-07T09:26:37.998Z,23.10
2019-06-07T09:29:11.481Z,23.40
2019-06-07T09:31:51.824Z,23.30
2019-06-07T09:34:14.452Z,23.50
2019-06-07T09:36:38.562Z,23.20
2019-06-07T09:39:12.269Z,23.00
2019-06-07T09:41:47.601Z,23.20
2019-06-07T09:44:23.277Z,22.90
2019-06-07T09:46:39.698Z,22.90
2019-06-07T09:49:16.477Z,23.30
2019-06-07T09:51:38.945Z,23.20
2019-06-07T09:54:10.792Z,23.10
2019-06-07T09:56:37.828Z,23.10
2019-06-07T09:59:11.765Z,23.20
2019-06-07T10:01:36.743Z,23.50
2019-06-07T10:04:09.152Z,23.60
2019-06-07T10:06:35.668Z,23.70
2019-06-07T10:11:36.905Z,23.50
2019-06-07T10:14:06.848Z,23.80
2019-06-07T10:16:46.251Z,23.50
2019-06-07T10:19:07.421Z,23.40
2019-06-07T10:21:36.472Z,23.30
2019-06-07T10:24:05.627Z,23.30
2019-06-07T10:26:34.523Z,23.60
2019-06-07T10:29:05.578Z,23.40
2019-06-07T10:31:33.850Z,23.60
2019-06-07T10:34:02.578Z,23.70
2019-06-07T10:36:31.300Z,23.80
2019-06-07T10:39:00.722Z,23.90
2019-06-07T10:41:29.676Z,23.70
2019-06-07T10:43:58.491Z,23.90
2019-06-07T10:46:27.215Z,24.10
2019-06-07T10:48:55.958Z,24.20
2019-06-07T10:51:24.713Z,24.20
2019-06-07T10:53:53.439Z,24.30
2019-06-07T10:56:22.219Z,24.40
2019-06-07T10:58:50.929Z,24.60
2019-06-07T11:01:19.447Z,24.90
2019-06-07T11:03:48.143Z,24.70
2019-06-07T11:06:16.980Z,24.50
2019-06-07T11:08:45.718Z,24.70
2019-06-07T11:11:14.574Z,25.00
2019-06-07T11:13:43.297Z,25.10
2019-06-07T11:16:13.049Z,24.90
2019-06-07T11:18:41.709Z,25.10
2019-06-07T11:21:10.212Z,25.20
2019-06-07T11:23:39.051Z,25.30
2019-06-07T11:26:08.352Z,25.20
2019-06-07T11:28:37.228Z,25.50
2019-06-07T11:31:06.316Z,25.80
2019-06-07T11:33:34.886Z,25.80
2019-06-07T11:36:03.647Z,25.70
2019-06-07T11:38:32.360Z,26.10
2019-06-07T11:41:01.067Z,26.50
2019-06-07T11:43:29.790Z,26.40
2019-06-07T11:45:59.601Z,26.20
2019-06-07T11:48:28.293Z,26.40
2019-06-07T11:50:57.025Z,26.60
2019-06-07T11:53:25.764Z,26.60
2019-06-07T11:55:54.451Z,26.70
2019-06-07T11:58:23.173Z,26.60
2019-06-07T12:00:51.909Z,26.40
2019-06-07T12:03:20.608Z,26.40
2019-06-07T12:05:49.035Z,26.20
2019-06-07T12:08:18.299Z,26.40
2019-06-07T12:10:46.989Z,26.70
2019-06-07T12:13:17.291Z,26.80
2019-06-07T12:15:48.974Z,26.80
2019-06-07T12:18:17.335Z,26.90
2019-06-07T12:20:45.814Z,27.00
2019-06-07T12:23:15.982Z,26.80
2019-06-07T12:25:44.962Z,26.70
2019-06-07T12:28:14.617Z,26.90
2019-06-07T12:30:43.572Z,26.90
2019-06-07T12:33:13.595Z,26.80
2019-06-07T12:35:42.488Z,26.70
2019-06-07T12:38:12.307Z,26.50
2019-06-07T12:40:41.207Z,26.50
2019-06-07T12:43:09.903Z,26.50
2019-06-07T12:45:44.805Z,26.80
2019-06-07T12:48:09.113Z,26.90
2019-06-07T12:50:43.035Z,26.80
2019-06-07T12:53:08.358Z,27.20
2019-06-07T12:55:37.062Z,27.30
2019-06-07T12:58:05.774Z,27.30
2019-06-07T13:00:34.499Z,26.80
2019-06-07T13:03:03.194Z,26.50
2019-06-07T13:05:31.915Z,26.60
2019-06-07T13:08:00.404Z,26.80
2019-06-07T13:10:29.168Z,27.30
2019-06-07T13:12:57.918Z,27.30
2019-06-07T13:15:26.661Z,27.40
2019-06-07T13:17:55.352Z,27.50
2019-06-07T13:20:24.690Z,27.50
2019-06-07T13:22:53.683Z,27.40
2019-06-07T13:25:25.404Z,27.20
2019-06-07T13:27:53.373Z,27.10
2019-06-07T13:30:23.538Z,27.20
2019-06-07T13:32:53.112Z,27.40
2019-06-07T13:35:23.407Z,27.70
2019-06-07T13:37:52.534Z,27.40
2019-06-07T13:40:22.998Z,27.40
2019-06-07T13:42:51.854Z,27.80
2019-06-07T13:45:22.317Z,27.90
2019-06-07T13:47:51.649Z,27.80
2019-06-07T13:50:21.743Z,28.00
2019-06-07T13:52:50.588Z,27.90
2019-06-07T13:55:20.162Z,27.60
2019-06-07T13:57:49.084Z,27.60
2019-06-07T14:00:21.141Z,27.50
2019-06-07T14:02:49.831Z,27.30
2019-06-07T14:05:18.731Z,27.30
2019-06-07T14:07:47.916Z,27.40
2019-06-07T14:10:16.430Z,27.80
2019-06-07T14:12:45.193Z,27.90
2019-06-07T14:15:14.074Z,28.10
2019-06-07T14:17:42.549Z,27.90
2019-06-07T14:20:11.686Z,27.90
2019-06-07T14:22:40.661Z,28.00
2019-06-07T14:25:11.488Z,28.00
2019-06-07T14:27:40.995Z,27.80
2019-06-07T14:30:10.907Z,27.90
2019-06-07T14:32:39.615Z,27.90
2019-06-07T14:35:09.515Z,28.00
2019-06-07T14:37:38.388Z,28.20
2019-06-07T14:40:09.753Z,28.40
2019-06-07T14:42:38.539Z,27.90
2019-06-07T14:45:11.089Z,27.80
2019-06-07T14:47:39.923Z,27.60
2019-06-07T14:50:10.617Z,27.60
2019-06-07T14:52:39.625Z,27.50
2019-06-07T14:55:08.712Z,27.70
2019-06-07T14:57:38.144Z,28.00
2019-06-07T15:00:14.810Z,28.10
2019-06-07T15:02:43.594Z,28.10
2019-06-07T15:05:12.781Z,28.00
2019-06-07T15:07:41.565Z,27.90
2019-06-07T15:10:11.011Z,27.60
2019-06-07T15:12:40.190Z,27.50
2019-06-07T15:15:10.721Z,27.40
2019-06-07T15:17:39.436Z,27.20
2019-06-07T15:20:09.106Z,27.20
2019-06-07T15:22:38.725Z,27.20
2019-06-07T15:25:08.617Z,27.30
2019-06-07T15:27:37.639Z,27.30
2019-06-07T15:30:11.766Z,27.30
2019-06-07T15:32:40.724Z,27.40
2019-06-07T15:35:10.078Z,27.30
2019-06-07T15:37:39.424Z,27.30
2019-06-07T15:40:10.569Z,27.20
2019-06-07T15:42:49.772Z,27.10
2019-06-07T15:45:10.697Z,27.10
2019-06-07T15:47:40.576Z,27.10
2019-06-07T15:50:10.631Z,26.90
2019-06-07T15:52:41.257Z,26.90
2019-06-07T15:55:12.204Z,26.80
2019-06-07T15:57:42.272Z,26.80
2019-06-07T16:00:15.965Z,26.90
2019-06-07T16:02:44.684Z,26.90
2019-06-07T16:05:13.722Z,26.90
2019-06-07T16:07:43.090Z,27.00
2019-06-07T16:10:12.777Z,27.10
2019-06-07T16:12:58.609Z,26.90
2019-06-07T16:15:12.611Z,26.90
2019-06-07T16:17:42.032Z,26.90
2019-06-07T16:20:12.032Z,26.80
2019-06-07T16:22:41.863Z,26.80
2019-06-07T16:25:11.386Z,26.80
2019-06-07T16:27:40.601Z,26.60
2019-06-07T16:30:11.074Z,26.50
2019-06-07T16:32:41.573Z,26.50
2019-06-07T16:35:10.177Z,26.60
2019-06-07T16:37:40.435Z,26.60
2019-06-07T16:40:13.993Z,26.60
2019-06-07T16:42:43.019Z,26.60
2019-06-07T16:45:14.288Z,26.70
2019-06-07T16:47:45.288Z,26.70
2019-06-07T16:50:15.535Z,26.60
2019-06-07T16:52:46.356Z,26.60
2019-06-07T16:55:16.306Z,26.60
2019-06-07T16:57:45.266Z,26.50
2019-06-07T17:00:15.509Z,26.50
2019-06-07T17:02:45.055Z,26.40
2019-06-07T17:05:14.984Z,26.40
2019-06-07T17:07:44.827Z,26.30
2019-06-07T17:10:16.161Z,26.30
2019-06-07T17:12:45.110Z,26.20
2019-06-07T17:15:17.578Z,26.10
2019-06-07T17:17:47.102Z,26.10
2019-06-07T17:20:18.014Z,26.00
2019-06-07T17:22:47.497Z,26.00
2019-06-07T17:25:17.320Z,25.90
2019-06-07T17:27:46.338Z,25.80
2019-06-07T17:30:16.847Z,25.80
2019-06-07T17:32:53.837Z,25.70
2019-06-07T17:35:16.469Z,25.60
2019-06-07T17:37:46.359Z,25.50
2019-06-07T17:40:16.400Z,25.40
2019-06-07T17:42:45.191Z,25.30
2019-06-07T17:45:21.587Z,25.10
2019-06-07T17:47:50.325Z,24.90
2019-06-07T17:50:19.333Z,24.70
2019-06-07T17:52:47.981Z,24.50
2019-06-07T17:55:18.364Z,24.30
2019-06-07T17:57:46.788Z,24.20
2019-06-07T18:00:33.411Z,24.00
2019-06-07T18:02:47.276Z,23.90
2019-06-07T18:05:16.463Z,23.70
2019-06-07T18:07:47.728Z,23.50
2019-06-07T18:10:19.672Z,23.40
2019-06-07T18:12:48.191Z,23.20
2019-06-07T18:15:20.011Z,23.20
2019-06-07T18:17:48.582Z,23.00
2019-06-07T18:20:17.067Z,23.00
2019-06-07T18:22:46.966Z,23.00
2019-06-07T18:25:15.976Z,23.00
2019-06-07T18:27:44.780Z,22.90
2019-06-07T18:30:13.577Z,22.80
2019-06-07T18:32:44.860Z,22.80
2019-06-07T18:35:14.822Z,22.70
2019-06-07T18:37:43.510Z,22.80
2019-06-07T18:40:12.463Z,22.70
2019-06-07T18:42:41.163Z,22.60
2019-06-07T18:45:10.588Z,22.50
2019-06-07T18:47:39.060Z,22.20
2019-06-07T18:50:29.426Z,21.70
2019-06-07T18:52:59.023Z,21.30
2019-06-07T18:58:49.078Z,20.70
2019-06-07T19:01:18.075Z,20.40
2019-06-07T19:03:48.368Z,20.20
2019-06-07T19:06:16.971Z,20.00
2019-06-07T19:08:45.410Z,19.90
2019-06-07T19:11:14.154Z,19.70
2019-06-07T19:13:42.879Z,19.60
2019-06-07T19:16:11.376Z,19.40
2019-06-07T19:18:39.811Z,19.20
2019-06-07T19:21:08.579Z,18.90
2019-06-07T19:23:37.279Z,18.70
2019-06-07T19:26:05.971Z,18.50
2019-06-07T19:28:34.697Z,18.30
2019-06-07T19:31:03.522Z,18.10
2019-06-07T19:33:32.211Z,17.90
2019-06-07T19:39:22.673Z,17.30
2019-06-07T19:41:51.871Z,16.80
2019-06-07T19:44:20.886Z,16.50
2019-06-07T19:46:54.605Z,16.20
2019-06-07T19:49:23.455Z,16.10
2019-06-07T19:51:52.849Z,16.00
2019-06-07T19:54:21.651Z,15.80
2019-06-07T19:59:41.021Z,15.70
2019-06-07T20:02:10.045Z,15.70
2019-06-07T20:05:03.398Z,15.60
2019-06-07T20:07:30.102Z,15.60
2019-06-07T20:09:58.805Z,15.60
2019-06-07T20:12:27.666Z,15.60
2019-06-07T20:15:18.744Z,15.60
2019-06-07T20:17:27.119Z,15.60
2019-06-07T20:20:00.490Z,15.60
2019-06-07T20:22:39.762Z,15.60
2019-06-07T20:25:09.691Z,15.60
2019-06-07T20:27:51.500Z,15.70
2019-06-07T20:30:31.005Z,15.60
2019-06-07T20:32:59.837Z,15.60
2019-06-07T20:35:28.852Z,15.60
2019-06-07T20:37:59.258Z,15.50
2019-06-07T20:40:28.116Z,15.40
2019-06-07T20:45:38.785Z,15.00
2019-06-07T20:48:08.468Z,14.80
2019-06-07T20:50:37.334Z,14.60
2019-06-07T20:53:07.205Z,14.40
2019-06-07T20:55:35.943Z,14.30
2019-06-07T20:58:13.994Z,14.20
2019-06-07T21:03:47.737Z,14.00
2019-06-07T21:09:42.268Z,13.80
2019-06-07T21:23:51.909Z,13.70
2019-06-07T21:26:20.591Z,13.80
2019-06-07T21:32:37.127Z,13.80
2019-06-07T21:37:45.876Z,13.70
2019-06-07T21:40:36.493Z,13.80
2019-06-07T21:43:22.055Z,13.80
2019-06-07T21:51:31.775Z,13.70
2019-06-07T21:54:13.091Z,13.60
2019-06-07T21:56:44.602Z,13.70
2019-06-07T22:04:52.998Z,13.60
2019-06-07T22:10:17.974Z,13.70
2019-06-07T22:12:48.372Z,13.80
2019-06-07T22:15:31.154Z,13.80
2019-06-07T22:17:47.965Z,13.80
2019-06-07T22:20:17.736Z,13.80
2019-06-07T22:22:46.573Z,13.80
2019-06-07T22:25:18.767Z,13.70
2019-06-07T22:27:47.649Z,13.60
2019-06-07T22:30:24.077Z,13.70
2019-06-07T22:32:52.896Z,13.70
2019-06-07T22:35:30.245Z,13.60
2019-06-07T22:37:59.992Z,13.60
2019-06-07T22:40:29.372Z,13.60
2019-06-07T23:21:44.713Z,13.50
2019-06-07T23:42:30.009Z,13.70
